sensor_id;sensor_type;location;lat;lon;timestamp;temperature;humidity
19878;DHT22;10101;52.204;9.910;2023-11-21T00:02:11;7.80;99.90
19878;DHT22;10101;52.204;9.910;2023-11-21T00:04:38;7.80;99.90
19878;DHT22;10101;52.204;9.910;2023-11-21T00:07:05;7.90;99.90
19878;DHT22;10101;52.204;9.910;2023-11-21T00:09:32;7.80;99.90
19878;DHT22;10101;52.204;9.910;2023-11-21T00:11:58;7.90;99.90
19878;DHT22;10101;52.204;9.910;2023-11-21T00:14:25;7.90;99.90
19878;DHT22;10101;52.204;9.910;2023-11-21T00:16:53;7.90;99.90
19878;DHT22;10101;52.204;9.910;2023-11-21T00:19:20;7.90;99.90
19878;DHT22;10101;52.204;9.910;2023-11-21T00:21:47;7.90;99.90
19878;DHT22;10101;52.204;9.910;2023-11-21T00:24:14;7.90;99.90
19878;DHT22;10101;52.204;9.910;2023-11-21T00:26:40;7.80;99.90
19878;DHT22;10101;52.204;9.910;2023-11-21T00:29:07;7.80;99.90
19878;DHT22;10101;52.204;9.910;2023-11-21T00:31:34;7.70;99.90
19878;DHT22;10101;52.204;9.910;2023-11-21T00:34:03;8.00;99.90
19878;DHT22;10101;52.204;9.910;2023-11-21T00:36:30;7.70;99.90
19878;DHT22;10101;52.204;9.910;2023-11-21T00:38:57;7.70;99.90
19878;DHT22;10101;52.204;9.910;2023-11-21T00:41:24;7.70;99.90
19878;DHT22;10101;52.204;9.910;2023-11-21T00:43:53;7.70;99.90
19878;DHT22;10101;52.204;9.910;2023-11-21T00:46:19;7.80;99.90
19878;DHT22;10101;52.204;9.910;2023-11-21T00:48:46;7.80;99.90
19878;DHT22;10101;52.204;9.910;2023-11-21T00:51:14;7.80;99.90
19878;DHT22;10101;52.204;9.910;2023-11-21T00:53:41;7.80;99.90
19878;DHT22;10101;52.204;9.910;2023-11-21T00:56:09;7.80;99.90
19878;DHT22;10101;52.204;9.910;2023-11-21T00:58:37;7.80;99.90
19878;DHT22;10101;52.204;9.910;2023-11-21T01:01:04;7.80;99.90
19878;DHT22;10101;52.204;9.910;2023-11-21T01:03:31;7.80;99.90
19878;DHT22;10101;52.204;9.910;2023-11-21T01:05:58;7.80;99.90
19878;DHT22;10101;52.204;9.910;2023-11-21T01:08:26;7.80;99.90
19878;DHT22;10101;52.204;9.910;2023-11-21T01:10:52;7.60;99.90
19878;DHT22;10101;52.204;9.910;2023-11-21T01:13:20;7.80;99.90
19878;DHT22;10101;52.204;9.910;2023-11-21T01:15:47;7.90;99.90
19878;DHT22;10101;52.204;9.910;2023-11-21T01:18:13;7.90;99.90
19878;DHT22;10101;52.204;9.910;2023-11-21T01:20:43;7.90;99.90
19878;DHT22;10101;52.204;9.910;2023-11-21T01:23:14;7.90;99.90
19878;DHT22;10101;52.204;9.910;2023-11-21T01:25:42;7.90;99.90
19878;DHT22;10101;52.204;9.910;2023-11-21T01:28:09;7.90;99.90
19878;DHT22;10101;52.204;9.910;2023-11-21T01:30:35;7.90;99.90
19878;DHT22;10101;52.204;9.910;2023-11-21T01:33:02;8.00;99.90
19878;DHT22;10101;52.204;9.910;2023-11-21T01:35:29;8.00;99.90
19878;DHT22;10101;52.204;9.910;2023-11-21T01:37:56;8.00;99.90
19878;DHT22;10101;52.204;9.910;2023-11-21T01:40:23;8.00;99.90
19878;DHT22;10101;52.204;9.910;2023-11-21T01:42:53;8.00;99.90
19878;DHT22;10101;52.204;9.910;2023-11-21T01:45:20;8.00;99.90
19878;DHT22;10101;52.204;9.910;2023-11-21T01:47:47;8.00;99.90
19878;DHT22;10101;52.204;9.910;2023-11-21T01:50:16;8.10;99.90
19878;DHT22;10101;52.204;9.910;2023-11-21T01:52:46;8.00;99.90
19878;DHT22;10101;52.204;9.910;2023-11-21T01:55:15;8.00;99.90
19878;DHT22;10101;52.204;9.910;2023-11-21T01:57:43;8.00;99.90
19878;DHT22;10101;52.204;9.910;2023-11-21T02:00:12;8.00;99.90
19878;DHT22;10101;52.204;9.910;2023-11-21T02:02:42;7.90;99.90
19878;DHT22;10101;52.204;9.910;2023-11-21T02:05:10;7.90;99.90
19878;DHT22;10101;52.204;9.910;2023-11-21T02:07:38;7.90;99.90
19878;DHT22;10101;52.204;9.910;2023-11-21T02:10:05;7.90;99.90
19878;DHT22;10101;52.204;9.910;2023-11-21T02:12:32;7.90;99.90
19878;DHT22;10101;52.204;9.910;2023-11-21T02:15:00;7.90;99.90
19878;DHT22;10101;52.204;9.910;2023-11-21T02:17:29;7.90;99.90
19878;DHT22;10101;52.204;9.910;2023-11-21T02:19:58;7.90;99.90
19878;DHT22;10101;52.204;9.910;2023-11-21T02:22:27;7.90;99.90
19878;DHT22;10101;52.204;9.910;2023-11-21T02:24:57;7.90;99.90
19878;DHT22;10101;52.204;9.910;2023-11-21T02:27:24;7.90;99.90
19878;DHT22;10101;52.204;9.910;2023-11-21T02:29:52;8.00;99.90
19878;DHT22;10101;52.204;9.910;2023-11-21T02:32:19;8.00;99.90
19878;DHT22;10101;52.204;9.910;2023-11-21T02:34:48;8.00;99.90
19878;DHT22;10101;52.204;9.910;2023-11-21T02:37:15;8.00;99.90
19878;DHT22;10101;52.204;9.910;2023-11-21T02:39:42;7.90;99.90
19878;DHT22;10101;52.204;9.910;2023-11-21T02:42:10;7.90;99.90
19878;DHT22;10101;52.204;9.910;2023-11-21T02:44:36;7.90;99.90
19878;DHT22;10101;52.204;9.910;2023-11-21T02:47:04;7.90;99.90
19878;DHT22;10101;52.204;9.910;2023-11-21T02:49:30;7.90;99.90
19878;DHT22;10101;52.204;9.910;2023-11-21T02:51:57;7.90;99.90
19878;DHT22;10101;52.204;9.910;2023-11-21T02:54:24;7.80;99.90
19878;DHT22;10101;52.204;9.910;2023-11-21T02:56:52;7.90;99.90
19878;DHT22;10101;52.204;9.910;2023-11-21T02:59:20;7.90;99.90
19878;DHT22;10101;52.204;9.910;2023-11-21T03:01:47;7.90;99.90
19878;DHT22;10101;52.204;9.910;2023-11-21T03:04:15;7.90;99.90
19878;DHT22;10101;52.204;9.910;2023-11-21T03:06:43;7.90;99.90
19878;DHT22;10101;52.204;9.910;2023-11-21T03:09:10;7.90;99.90
19878;DHT22;10101;52.204;9.910;2023-11-21T03:11:37;7.90;99.90
19878;DHT22;10101;52.204;9.910;2023-11-21T03:14:04;7.90;99.90
19878;DHT22;10101;52.204;9.910;2023-11-21T03:16:33;7.90;99.90
19878;DHT22;10101;52.204;9.910;2023-11-21T03:19:00;7.90;99.90
19878;DHT22;10101;52.204;9.910;2023-11-21T03:21:26;7.90;99.90
19878;DHT22;10101;52.204;9.910;2023-11-21T03:23:54;7.80;99.90
19878;DHT22;10101;52.204;9.910;2023-11-21T03:26:21;7.80;99.90
19878;DHT22;10101;52.204;9.910;2023-11-21T03:28:48;7.80;99.90
19878;DHT22;10101;52.204;9.910;2023-11-21T03:31:15;7.80;99.90
19878;DHT22;10101;52.204;9.910;2023-11-21T03:33:45;7.80;99.90
19878;DHT22;10101;52.204;9.910;2023-11-21T03:36:13;7.80;99.90
19878;DHT22;10101;52.204;9.910;2023-11-21T03:38:41;7.80;99.90
19878;DHT22;10101;52.204;9.910;2023-11-21T03:41:08;7.80;99.90
19878;DHT22;10101;52.204;9.910;2023-11-21T03:43:36;7.80;99.90
19878;DHT22;10101;52.204;9.910;2023-11-21T03:46:03;7.80;99.90
19878;DHT22;10101;52.204;9.910;2023-11-21T03:48:30;7.90;99.90
19878;DHT22;10101;52.204;9.910;2023-11-21T03:50:59;7.80;99.90
19878;DHT22;10101;52.204;9.910;2023-11-21T03:53:26;7.90;99.90
19878;DHT22;10101;52.204;9.910;2023-11-21T03:55:53;7.80;99.90
19878;DHT22;10101;52.204;9.910;2023-11-21T03:58:20;7.80;99.90
19878;DHT22;10101;52.204;9.910;2023-11-21T04:00:47;7.80;99.90
19878;DHT22;10101;52.204;9.910;2023-11-21T04:03:14;7.80;99.90
19878;DHT22;10101;52.204;9.910;2023-11-21T04:05:41;7.80;99.90
19878;DHT22;10101;52.204;9.910;2023-11-21T04:08:09;7.80;99.90
19878;DHT22;10101;52.204;9.910;2023-11-21T04:10:35;7.80;99.90
19878;DHT22;10101;52.204;9.910;2023-11-21T04:13:04;7.80;99.90
19878;DHT22;10101;52.204;9.910;2023-11-21T04:15:32;7.80;99.90
19878;DHT22;10101;52.204;9.910;2023-11-21T04:17:58;7.80;99.90
19878;DHT22;10101;52.204;9.910;2023-11-21T04:20:25;7.80;99.90
19878;DHT22;10101;52.204;9.910;2023-11-21T04:22:52;7.70;99.90
19878;DHT22;10101;52.204;9.910;2023-11-21T04:25:20;7.80;99.90
19878;DHT22;10101;52.204;9.910;2023-11-21T04:27:48;7.70;99.90
19878;DHT22;10101;52.204;9.910;2023-11-21T04:30:15;7.70;99.90
19878;DHT22;10101;52.204;9.910;2023-11-21T04:32:42;7.70;99.90
19878;DHT22;10101;52.204;9.910;2023-11-21T04:35:09;7.70;99.90
19878;DHT22;10101;52.204;9.910;2023-11-21T04:37:36;7.70;99.90
19878;DHT22;10101;52.204;9.910;2023-11-21T04:40:03;7.70;99.90
19878;DHT22;10101;52.204;9.910;2023-11-21T04:42:34;7.80;99.90
19878;DHT22;10101;52.204;9.910;2023-11-21T04:45:01;7.70;99.90
19878;DHT22;10101;52.204;9.910;2023-11-21T04:47:30;7.80;99.90
19878;DHT22;10101;52.204;9.910;2023-11-21T04:49:57;7.80;99.90
19878;DHT22;10101;52.204;9.910;2023-11-21T04:52:24;7.80;99.90
19878;DHT22;10101;52.204;9.910;2023-11-21T04:54:50;7.70;99.90
19878;DHT22;10101;52.204;9.910;2023-11-21T04:57:19;7.70;99.90
19878;DHT22;10101;52.204;9.910;2023-11-21T04:59:48;7.80;99.90
19878;DHT22;10101;52.204;9.910;2023-11-21T05:02:15;7.70;99.90
19878;DHT22;10101;52.204;9.910;2023-11-21T05:04:44;7.70;99.90
19878;DHT22;10101;52.204;9.910;2023-11-21T05:07:11;7.70;99.90
19878;DHT22;10101;52.204;9.910;2023-11-21T05:09:41;7.70;99.90
19878;DHT22;10101;52.204;9.910;2023-11-21T05:12:09;7.80;99.90
19878;DHT22;10101;52.204;9.910;2023-11-21T05:14:36;7.80;99.90
19878;DHT22;10101;52.204;9.910;2023-11-21T05:17:04;7.70;99.90
19878;DHT22;10101;52.204;9.910;2023-11-21T05:19:33;7.70;99.90
19878;DHT22;10101;52.204;9.910;2023-11-21T05:22:00;7.80;99.90
19878;DHT22;10101;52.204;9.910;2023-11-21T05:24:27;7.80;99.90
19878;DHT22;10101;52.204;9.910;2023-11-21T05:26:54;7.80;99.90
19878;DHT22;10101;52.204;9.910;2023-11-21T05:29:21;7.80;99.90
19878;DHT22;10101;52.204;9.910;2023-11-21T05:31:48;7.80;99.90
19878;DHT22;10101;52.204;9.910;2023-11-21T05:34:16;7.80;99.90
19878;DHT22;10101;52.204;9.910;2023-11-21T05:36:43;7.80;99.90
19878;DHT22;10101;52.204;9.910;2023-11-21T05:39:11;7.80;99.90
19878;DHT22;10101;52.204;9.910;2023-11-21T05:41:37;7.90;99.90
19878;DHT22;10101;52.204;9.910;2023-11-21T05:44:04;7.90;99.90
19878;DHT22;10101;52.204;9.910;2023-11-21T05:46:31;7.90;99.90
19878;DHT22;10101;52.204;9.910;2023-11-21T05:48:58;7.80;99.90
19878;DHT22;10101;52.204;9.910;2023-11-21T05:51:26;7.90;99.90
19878;DHT22;10101;52.204;9.910;2023-11-21T05:53:53;7.80;99.90
19878;DHT22;10101;52.204;9.910;2023-11-21T05:56:20;7.90;99.90
19878;DHT22;10101;52.204;9.910;2023-11-21T05:58:47;7.90;99.90
19878;DHT22;10101;52.204;9.910;2023-11-21T06:01:14;7.90;99.90
19878;DHT22;10101;52.204;9.910;2023-11-21T06:03:40;7.90;99.90
19878;DHT22;10101;52.204;9.910;2023-11-21T06:06:08;7.90;99.90
19878;DHT22;10101;52.204;9.910;2023-11-21T06:08:36;7.90;99.90
19878;DHT22;10101;52.204;9.910;2023-11-21T06:11:03;7.90;99.90
19878;DHT22;10101;52.204;9.910;2023-11-21T06:13:29;7.90;99.90
19878;DHT22;10101;52.204;9.910;2023-11-21T06:15:56;7.90;99.90
19878;DHT22;10101;52.204;9.910;2023-11-21T06:18:23;8.00;99.90
19878;DHT22;10101;52.204;9.910;2023-11-21T06:20:50;8.00;99.90
19878;DHT22;10101;52.204;9.910;2023-11-21T06:23:18;7.90;99.90
19878;DHT22;10101;52.204;9.910;2023-11-21T06:25:46;7.90;99.90
19878;DHT22;10101;52.204;9.910;2023-11-21T06:28:14;8.00;99.90
19878;DHT22;10101;52.204;9.910;2023-11-21T06:30:43;8.00;99.90
19878;DHT22;10101;52.204;9.910;2023-11-21T06:33:10;8.00;99.90
19878;DHT22;10101;52.204;9.910;2023-11-21T06:35:37;8.10;99.90
19878;DHT22;10101;52.204;9.910;2023-11-21T06:38:04;8.00;99.90
19878;DHT22;10101;52.204;9.910;2023-11-21T06:40:30;8.00;99.90
19878;DHT22;10101;52.204;9.910;2023-11-21T06:43:00;8.00;99.90
19878;DHT22;10101;52.204;9.910;2023-11-21T06:45:27;8.10;99.90
19878;DHT22;10101;52.204;9.910;2023-11-21T06:47:54;8.10;99.90
19878;DHT22;10101;52.204;9.910;2023-11-21T06:50:20;8.00;99.90
19878;DHT22;10101;52.204;9.910;2023-11-21T06:52:47;8.00;99.90
19878;DHT22;10101;52.204;9.910;2023-11-21T06:55:15;8.00;99.90
19878;DHT22;10101;52.204;9.910;2023-11-21T06:57:43;8.00;99.90
19878;DHT22;10101;52.204;9.910;2023-11-21T07:00:12;8.10;99.90
19878;DHT22;10101;52.204;9.910;2023-11-21T07:02:40;8.10;99.90
19878;DHT22;10101;52.204;9.910;2023-11-21T07:05:07;8.10;99.90
19878;DHT22;10101;52.204;9.910;2023-11-21T07:07:34;8.20;99.90
19878;DHT22;10101;52.204;9.910;2023-11-21T07:10:02;8.20;99.90
19878;DHT22;10101;52.204;9.910;2023-11-21T07:14:56;8.20;99.90
19878;DHT22;10101;52.204;9.910;2023-11-21T07:17:24;8.20;99.90
19878;DHT22;10101;52.204;9.910;2023-11-21T07:19:51;8.20;99.90
19878;DHT22;10101;52.204;9.910;2023-11-21T07:22:18;8.20;99.90
19878;DHT22;10101;52.204;9.910;2023-11-21T07:24:48;8.10;99.90
19878;DHT22;10101;52.204;9.910;2023-11-21T07:27:16;8.10;99.90
19878;DHT22;10101;52.204;9.910;2023-11-21T07:29:42;8.20;99.90
19878;DHT22;10101;52.204;9.910;2023-11-21T07:32:09;8.20;99.90
19878;DHT22;10101;52.204;9.910;2023-11-21T07:34:37;8.10;99.90
19878;DHT22;10101;52.204;9.910;2023-11-21T07:37:04;8.00;99.90
19878;DHT22;10101;52.204;9.910;2023-11-21T07:39:31;7.90;99.90
19878;DHT22;10101;52.204;9.910;2023-11-21T07:41:57;7.90;99.90
19878;DHT22;10101;52.204;9.910;2023-11-21T07:44:24;7.90;99.90
19878;DHT22;10101;52.204;9.910;2023-11-21T07:46:51;7.80;99.90
19878;DHT22;10101;52.204;9.910;2023-11-21T07:49:22;7.80;99.90
19878;DHT22;10101;52.204;9.910;2023-11-21T07:51:50;7.80;99.90
19878;DHT22;10101;52.204;9.910;2023-11-21T07:54:17;7.80;99.90
19878;DHT22;10101;52.204;9.910;2023-11-21T07:56:44;7.70;99.90
19878;DHT22;10101;52.204;9.910;2023-11-21T07:59:10;7.80;99.90
19878;DHT22;10101;52.204;9.910;2023-11-21T08:01:38;7.80;99.90
19878;DHT22;10101;52.204;9.910;2023-11-21T08:04:06;7.80;99.90
19878;DHT22;10101;52.204;9.910;2023-11-21T08:06:33;7.70;99.90
19878;DHT22;10101;52.204;9.910;2023-11-21T08:09:02;7.70;99.90
19878;DHT22;10101;52.204;9.910;2023-11-21T08:11:28;7.70;99.90
19878;DHT22;10101;52.204;9.910;2023-11-21T08:13:57;7.70;99.90
19878;DHT22;10101;52.204;9.910;2023-11-21T08:16:24;7.70;99.90
19878;DHT22;10101;52.204;9.910;2023-11-21T08:18:51;7.70;99.90
19878;DHT22;10101;52.204;9.910;2023-11-21T08:21:18;7.70;99.90
19878;DHT22;10101;52.204;9.910;2023-11-21T08:23:45;7.60;99.90
19878;DHT22;10101;52.204;9.910;2023-11-21T08:26:15;7.60;99.90
19878;DHT22;10101;52.204;9.910;2023-11-21T08:28:42;7.60;99.90
19878;DHT22;10101;52.204;9.910;2023-11-21T08:31:09;7.60;99.90
19878;DHT22;10101;52.204;9.910;2023-11-21T08:33:36;7.50;99.90
19878;DHT22;10101;52.204;9.910;2023-11-21T08:36:07;7.60;99.90
19878;DHT22;10101;52.204;9.910;2023-11-21T08:38:35;7.60;99.90
19878;DHT22;10101;52.204;9.910;2023-11-21T08:41:04;7.50;99.90
19878;DHT22;10101;52.204;9.910;2023-11-21T08:43:34;7.60;99.90
19878;DHT22;10101;52.204;9.910;2023-11-21T08:46:01;7.60;99.90
19878;DHT22;10101;52.204;9.910;2023-11-21T08:48:28;7.50;99.90
19878;DHT22;10101;52.204;9.910;2023-11-21T08:50:55;7.50;99.90
19878;DHT22;10101;52.204;9.910;2023-11-21T08:53:22;7.50;99.90
19878;DHT22;10101;52.204;9.910;2023-11-21T08:55:48;7.40;99.90
19878;DHT22;10101;52.204;9.910;2023-11-21T08:58:15;7.40;99.90
19878;DHT22;10101;52.204;9.910;2023-11-21T09:00:44;7.40;99.90
19878;DHT22;10101;52.204;9.910;2023-11-21T09:03:11;7.30;99.90
19878;DHT22;10101;52.204;9.910;2023-11-21T09:05:38;7.40;99.90
19878;DHT22;10101;52.204;9.910;2023-11-21T09:08:05;7.40;99.90
19878;DHT22;10101;52.204;9.910;2023-11-21T09:10:33;7.30;99.90
19878;DHT22;10101;52.204;9.910;2023-11-21T09:13:01;7.30;99.90
19878;DHT22;10101;52.204;9.910;2023-11-21T09:15:28;7.30;99.90
19878;DHT22;10101;52.204;9.910;2023-11-21T09:17:56;7.30;99.90
19878;DHT22;10101;52.204;9.910;2023-11-21T09:20:23;7.30;99.90
19878;DHT22;10101;52.204;9.910;2023-11-21T09:22:50;7.40;99.90
19878;DHT22;10101;52.204;9.910;2023-11-21T09:25:17;7.40;99.90
19878;DHT22;10101;52.204;9.910;2023-11-21T09:27:44;7.30;99.90
19878;DHT22;10101;52.204;9.910;2023-11-21T09:30:12;7.30;99.90
19878;DHT22;10101;52.204;9.910;2023-11-21T09:32:39;7.30;99.90
19878;DHT22;10101;52.204;9.910;2023-11-21T09:35:08;7.20;99.90
19878;DHT22;10101;52.204;9.910;2023-11-21T09:37:35;7.30;99.90
19878;DHT22;10101;52.204;9.910;2023-11-21T09:40:04;7.20;99.90
19878;DHT22;10101;52.204;9.910;2023-11-21T09:42:36;7.30;99.90
19878;DHT22;10101;52.204;9.910;2023-11-21T09:45:11;7.40;99.90
19878;DHT22;10101;52.204;9.910;2023-11-21T09:47:42;7.50;99.90
19878;DHT22;10101;52.204;9.910;2023-11-21T09:50:11;7.40;99.90
19878;DHT22;10101;52.204;9.910;2023-11-21T09:52:46;7.40;99.90
19878;DHT22;10101;52.204;9.910;2023-11-21T09:55:16;7.30;99.90
19878;DHT22;10101;52.204;9.910;2023-11-21T09:57:47;7.40;99.90
19878;DHT22;10101;52.204;9.910;2023-11-21T10:00:22;7.40;99.90
19878;DHT22;10101;52.204;9.910;2023-11-21T10:02:49;7.50;99.90
19878;DHT22;10101;52.204;9.910;2023-11-21T10:05:19;7.50;99.90
19878;DHT22;10101;52.204;9.910;2023-11-21T10:07:49;7.50;99.90
19878;DHT22;10101;52.204;9.910;2023-11-21T10:10:18;7.50;99.90
19878;DHT22;10101;52.204;9.910;2023-11-21T10:12:49;7.50;99.90
19878;DHT22;10101;52.204;9.910;2023-11-21T10:15:22;7.50;99.90
19878;DHT22;10101;52.204;9.910;2023-11-21T10:17:49;7.40;99.90
19878;DHT22;10101;52.204;9.910;2023-11-21T10:20:20;7.50;99.90
19878;DHT22;10101;52.204;9.910;2023-11-21T10:22:46;7.60;99.90
19878;DHT22;10101;52.204;9.910;2023-11-21T10:25:13;7.50;99.90
19878;DHT22;10101;52.204;9.910;2023-11-21T10:27:41;7.50;99.90
19878;DHT22;10101;52.204;9.910;2023-11-21T10:30:09;7.40;99.90
19878;DHT22;10101;52.204;9.910;2023-11-21T10:32:37;7.50;99.90
19878;DHT22;10101;52.204;9.910;2023-11-21T10:35:06;7.30;99.90
19878;DHT22;10101;52.204;9.910;2023-11-21T10:37:37;7.30;99.90
19878;DHT22;10101;52.204;9.910;2023-11-21T10:40:06;7.30;99.90
19878;DHT22;10101;52.204;9.910;2023-11-21T10:42:33;7.30;99.90
19878;DHT22;10101;52.204;9.910;2023-11-21T10:45:00;7.30;99.90
19878;DHT22;10101;52.204;9.910;2023-11-21T10:47:30;7.30;99.90
19878;DHT22;10101;52.204;9.910;2023-11-21T10:49:57;7.20;99.90
19878;DHT22;10101;52.204;9.910;2023-11-21T10:52:27;7.20;99.90
19878;DHT22;10101;52.204;9.910;2023-11-21T10:54:55;7.30;99.90
19878;DHT22;10101;52.204;9.910;2023-11-21T10:57:25;7.20;99.90
19878;DHT22;10101;52.204;9.910;2023-11-21T10:59:54;7.20;99.90
19878;DHT22;10101;52.204;9.910;2023-11-21T11:02:24;7.20;99.90
19878;DHT22;10101;52.204;9.910;2023-11-21T11:04:53;7.20;99.90
19878;DHT22;10101;52.204;9.910;2023-11-21T11:07:21;7.20;99.90
19878;DHT22;10101;52.204;9.910;2023-11-21T11:09:53;7.30;99.90
19878;DHT22;10101;52.204;9.910;2023-11-21T11:12:21;7.30;99.90
19878;DHT22;10101;52.204;9.910;2023-11-21T11:14:48;7.30;99.90
19878;DHT22;10101;52.204;9.910;2023-11-21T11:17:15;7.30;99.90
19878;DHT22;10101;52.204;9.910;2023-11-21T11:19:45;7.20;99.90
19878;DHT22;10101;52.204;9.910;2023-11-21T11:22:19;7.30;99.90
19878;DHT22;10101;52.204;9.910;2023-11-21T11:28:00;7.10;99.90
19878;DHT22;10101;52.204;9.910;2023-11-21T11:30:39;7.20;99.90
19878;DHT22;10101;52.204;9.910;2023-11-21T11:33:14;7.30;99.90
19878;DHT22;10101;52.204;9.910;2023-11-21T11:35:56;7.20;99.90
19878;DHT22;10101;52.204;9.910;2023-11-21T11:38:23;7.30;99.90
19878;DHT22;10101;52.204;9.910;2023-11-21T11:40:53;7.20;99.90
19878;DHT22;10101;52.204;9.910;2023-11-21T11:43:31;7.20;99.90
19878;DHT22;10101;52.204;9.910;2023-11-21T11:46:05;7.20;99.90
19878;DHT22;10101;52.204;9.910;2023-11-21T11:48:35;7.30;99.90
19878;DHT22;10101;52.204;9.910;2023-11-21T11:51:06;7.30;99.90
19878;DHT22;10101;52.204;9.910;2023-11-21T11:53:39;7.30;99.90
19878;DHT22;10101;52.204;9.910;2023-11-21T11:56:26;7.20;99.90
19878;DHT22;10101;52.204;9.910;2023-11-21T11:58:58;7.30;99.90
19878;DHT22;10101;52.204;9.910;2023-11-21T12:01:28;7.30;99.90
19878;DHT22;10101;52.204;9.910;2023-11-21T12:04:23;7.30;99.90
19878;DHT22;10101;52.204;9.910;2023-11-21T12:06:57;7.30;99.90
19878;DHT22;10101;52.204;9.910;2023-11-21T12:09:26;7.40;99.90
19878;DHT22;10101;52.204;9.910;2023-11-21T12:11:53;7.30;99.90
19878;DHT22;10101;52.204;9.910;2023-11-21T12:14:22;7.30;99.90
19878;DHT22;10101;52.204;9.910;2023-11-21T12:16:49;7.40;99.90
19878;DHT22;10101;52.204;9.910;2023-11-21T12:19:17;7.40;99.90
19878;DHT22;10101;52.204;9.910;2023-11-21T12:21:44;7.50;99.90
19878;DHT22;10101;52.204;9.910;2023-11-21T12:24:11;7.40;99.90
19878;DHT22;10101;52.204;9.910;2023-11-21T12:26:39;7.40;99.90
19878;DHT22;10101;52.204;9.910;2023-11-21T12:29:06;7.60;99.90
19878;DHT22;10101;52.204;9.910;2023-11-21T12:31:34;7.60;99.90
19878;DHT22;10101;52.204;9.910;2023-11-21T12:34:01;7.70;99.90
19878;DHT22;10101;52.204;9.910;2023-11-21T12:36:29;7.60;99.90
19878;DHT22;10101;52.204;9.910;2023-11-21T12:38:56;7.60;99.90
19878;DHT22;10101;52.204;9.910;2023-11-21T12:41:23;7.60;99.90
19878;DHT22;10101;52.204;9.910;2023-11-21T12:43:49;7.40;99.90
19878;DHT22;10101;52.204;9.910;2023-11-21T12:46:16;7.50;99.90
19878;DHT22;10101;52.204;9.910;2023-11-21T12:48:45;7.50;99.90
19878;DHT22;10101;52.204;9.910;2023-11-21T12:51:12;7.50;99.90
19878;DHT22;10101;52.204;9.910;2023-11-21T12:53:41;7.30;1.00
19878;DHT22;10101;52.204;9.910;2023-11-21T12:56:10;7.40;1.00
19878;DHT22;10101;52.204;9.910;2023-11-21T12:58:37;7.30;1.00
19878;DHT22;10101;52.204;9.910;2023-11-21T13:01:06;7.30;1.00
19878;DHT22;10101;52.204;9.910;2023-11-21T13:03:37;7.30;99.90
19878;DHT22;10101;52.204;9.910;2023-11-21T13:06:07;7.20;99.90
19878;DHT22;10101;52.204;9.910;2023-11-21T13:08:34;7.50;99.90
19878;DHT22;10101;52.204;9.910;2023-11-21T13:11:01;7.30;99.90
19878;DHT22;10101;52.204;9.910;2023-11-21T13:13:29;7.30;9.00
19878;DHT22;10101;52.204;9.910;2023-11-21T13:15:58;7.30;99.90
19878;DHT22;10101;52.204;9.910;2023-11-21T13:18:27;7.30;1.00
19878;DHT22;10101;52.204;9.910;2023-11-21T13:20:57;7.30;99.90
19878;DHT22;10101;52.204;9.910;2023-11-21T13:23:26;7.30;1.00
19878;DHT22;10101;52.204;9.910;2023-11-21T13:25:54;7.20;1.00
19878;DHT22;10101;52.204;9.910;2023-11-21T13:28:21;7.20;1.00
19878;DHT22;10101;52.204;9.910;2023-11-21T13:30:49;7.20;1.00
19878;DHT22;10101;52.204;9.910;2023-11-21T13:33:18;7.10;1.00
19878;DHT22;10101;52.204;9.910;2023-11-21T13:35:48;7.10;99.90
19878;DHT22;10101;52.204;9.910;2023-11-21T13:38:18;7.00;99.90
19878;DHT22;10101;52.204;9.910;2023-11-21T13:40:50;6.90;99.90
19878;DHT22;10101;52.204;9.910;2023-11-21T13:43:21;6.90;99.90
19878;DHT22;10101;52.204;9.910;2023-11-21T13:45:50;6.90;99.90
19878;DHT22;10101;52.204;9.910;2023-11-21T13:48:21;6.90;99.30
19878;DHT22;10101;52.204;9.910;2023-11-21T13:50:53;6.90;1.00
19878;DHT22;10101;52.204;9.910;2023-11-21T13:53:24;7.00;1.00
19878;DHT22;10101;52.204;9.910;2023-11-21T13:55:53;6.90;1.00
19878;DHT22;10101;52.204;9.910;2023-11-21T13:58:21;7.00;99.90
19878;DHT22;10101;52.204;9.910;2023-11-21T14:00:51;7.00;2.90
19878;DHT22;10101;52.204;9.910;2023-11-21T14:03:22;6.90;99.90
19878;DHT22;10101;52.204;9.910;2023-11-21T14:05:51;6.90;1.00
19878;DHT22;10101;52.204;9.910;2023-11-21T14:08:19;6.90;1.00
19878;DHT22;10101;52.204;9.910;2023-11-21T14:10:46;6.90;1.00
19878;DHT22;10101;52.204;9.910;2023-11-21T14:13:17;6.90;67.60
19878;DHT22;10101;52.204;9.910;2023-11-21T14:15:45;7.00;31.90
19878;DHT22;10101;52.204;9.910;2023-11-21T14:18:16;7.00;1.00
19878;DHT22;10101;52.204;9.910;2023-11-21T14:20:51;7.00;1.00
19878;DHT22;10101;52.204;9.910;2023-11-21T14:23:18;6.90;1.00
19878;DHT22;10101;52.204;9.910;2023-11-21T14:25:46;7.00;1.00
19878;DHT22;10101;52.204;9.910;2023-11-21T14:28:13;7.00;1.00
19878;DHT22;10101;52.204;9.910;2023-11-21T14:30:41;6.80;99.90
19878;DHT22;10101;52.204;9.910;2023-11-21T14:33:08;6.90;1.00
19878;DHT22;10101;52.204;9.910;2023-11-21T14:35:37;6.80;99.90
19878;DHT22;10101;52.204;9.910;2023-11-21T14:38:03;6.90;99.90
19878;DHT22;10101;52.204;9.910;2023-11-21T14:40:31;6.70;99.90
19878;DHT22;10101;52.204;9.910;2023-11-21T14:43:01;6.70;1.00
19878;DHT22;10101;52.204;9.910;2023-11-21T14:45:30;6.80;1.00
19878;DHT22;10101;52.204;9.910;2023-11-21T14:47:59;6.70;1.00
19878;DHT22;10101;52.204;9.910;2023-11-21T14:50:32;6.70;1.00
19878;DHT22;10101;52.204;9.910;2023-11-21T14:53:16;6.60;99.90
19878;DHT22;10101;52.204;9.910;2023-11-21T14:55:48;6.60;1.00
19878;DHT22;10101;52.204;9.910;2023-11-21T14:58:23;6.60;99.90
19878;DHT22;10101;52.204;9.910;2023-11-21T15:00:55;6.50;1.00
19878;DHT22;10101;52.204;9.910;2023-11-21T15:03:26;6.50;27.50
19878;DHT22;10101;52.204;9.910;2023-11-21T15:06:09;6.40;99.90
19878;DHT22;10101;52.204;9.910;2023-11-21T15:08:54;6.40;99.90
19878;DHT22;10101;52.204;9.910;2023-11-21T15:11:38;6.40;99.90
19878;DHT22;10101;52.204;9.910;2023-11-21T15:14:05;6.40;1.00
19878;DHT22;10101;52.204;9.910;2023-11-21T15:16:33;6.30;1.00
19878;DHT22;10101;52.204;9.910;2023-11-21T15:19:00;6.30;1.00
19878;DHT22;10101;52.204;9.910;2023-11-21T15:21:27;6.30;99.90
19878;DHT22;10101;52.204;9.910;2023-11-21T15:23:54;6.30;1.00
19878;DHT22;10101;52.204;9.910;2023-11-21T15:26:20;6.30;1.00
19878;DHT22;10101;52.204;9.910;2023-11-21T15:28:47;6.20;99.90
19878;DHT22;10101;52.204;9.910;2023-11-21T15:31:14;6.20;1.00
19878;DHT22;10101;52.204;9.910;2023-11-21T15:33:42;6.30;1.00
19878;DHT22;10101;52.204;9.910;2023-11-21T15:36:10;6.30;99.90
19878;DHT22;10101;52.204;9.910;2023-11-21T15:38:39;6.20;99.90
19878;DHT22;10101;52.204;9.910;2023-11-21T15:41:05;6.10;99.00
19878;DHT22;10101;52.204;9.910;2023-11-21T15:43:35;6.10;99.90
19878;DHT22;10101;52.204;9.910;2023-11-21T15:46:02;6.00;43.40
19878;DHT22;10101;52.204;9.910;2023-11-21T15:48:33;5.90;88.60
19878;DHT22;10101;52.204;9.910;2023-11-21T15:51:00;5.80;99.90
19878;DHT22;10101;52.204;9.910;2023-11-21T15:53:29;5.70;1.00
19878;DHT22;10101;52.204;9.910;2023-11-21T15:55:56;5.70;1.00
19878;DHT22;10101;52.204;9.910;2023-11-21T15:58:23;5.70;1.00
19878;DHT22;10101;52.204;9.910;2023-11-21T16:00:51;5.70;1.00